Hypoluxo, Florida
Current Conditions -  °F | °C
As of 12:53 PM on Friday 28 Nov 2014 (Local Time) from KPBI Reporting Station
Scattered Clouds Scattered Clouds  
Wind Chill: 69°   Ceiling: Unl
Heat Index: 69°   Visibility: 10mi
Dew Point: 52°   Wind: 15mph
Humidity: 54%   Direction: 330°NNW
Pressure: 30.18"   Gusts: NA
Location:  26.5758°N, 80.0835°W
Report Text: KPBI 281753Z 33013KT 10SM SCT033 SCT250 21/11 A3018 RMK AO2 SLP221 T02060111 10206 20100 58019
Loading
Personal Weather Stations






























Interactive Weather Map New forecast layout! Learn more

10-Day Weather Forecast

Advertisements
Track Severe Weather on mobile